Time;durP1;ratioP1;P1;durP2;ratioP2;P2;SDS_P1;SDS_P2;PMS_P1;PMS_P2;Temp;Humidity;BMP_temperature;BMP_pressure;BME280_temperature;BME280_humidity;BME280_pressure;Samples;Min_cycle;Max_cycle;Signal;HPM_P1;HPM_P2
2021/08/15 00:01:22;;;;;;;7.93;4.07;;;;;;;16.60;73.42;101011.35;125057;1092;64360;-79
2021/08/15 00:03:50;;;;;;;10.07;4.17;;;;;;;16.56;73.50;101010.93;125024;1093;64360;-79
2021/08/15 00:06:18;;;;;;;14.00;5.70;;;;;;;16.52;73.70;101015.05;124958;1092;64256;-79
2021/08/15 00:08:46;;;;;;;10.77;4.50;;;;;;;16.50;73.97;101019.78;125098;1093;64346;-80
2021/08/15 00:11:13;;;;;;;7.77;4.43;;;;;;;16.44;74.13;101017.93;125148;1093;64214;-79
2021/08/15 00:13:40;;;;;;;10.73;4.57;;;;;;;16.38;74.62;101016.07;124903;1093;64294;-79
2021/08/15 00:16:07;;;;;;;8.83;4.53;;;;;;;16.31;74.96;101013.39;125000;1093;64304;-79
2021/08/15 00:18:36;;;;;;;11.90;5.10;;;;;;;16.23;74.98;101019.76;124963;1093;64411;-80
2021/08/15 00:21:04;;;;;;;8.67;4.27;;;;;;;16.17;75.43;101022.43;125148;1092;64229;-79
2021/08/15 00:23:31;;;;;;;9.13;4.17;;;;;;;16.11;75.91;101024.09;125215;1093;64141;-81
2021/08/15 00:25:58;;;;;;;10.87;4.10;;;;;;;16.07;76.34;101025.52;125130;1093;64456;-80
2021/08/15 00:28:25;;;;;;;9.43;4.63;;;;;;;16.03;76.49;101024.28;124997;1092;64211;-80
2021/08/15 00:30:52;;;;;;;12.25;4.60;;;;;;;16.00;76.71;101027.34;124894;1093;64317;-79
2021/08/15 00:33:19;;;;;;;10.37;4.47;;;;;;;15.95;76.86;101025.27;124963;1092;64248;-79
2021/08/15 00:35:46;;;;;;;9.20;3.93;;;;;;;15.90;76.81;101017.86;125031;1093;64284;-79
2021/08/15 00:38:13;;;;;;;10.93;5.53;;;;;;;15.87;77.35;101017.43;125036;1092;64314;-79
2021/08/15 00:40:40;;;;;;;15.60;5.63;;;;;;;15.84;78.14;101017.84;125134;1093;64301;-80
2021/08/15 00:43:09;;;;;;;10.07;4.57;;;;;;;15.80;78.28;101019.27;124961;1093;64381;-80
2021/08/15 00:45:36;;;;;;;11.87;4.60;;;;;;;15.76;78.45;101015.35;125271;1093;64304;-80
2021/08/15 00:48:10;;;;;;;10.20;5.75;;;;;;;15.71;78.59;101007.91;125001;1092;64293;-80
2021/08/15 00:50:38;;;;;;;12.08;4.63;;;;;;;15.66;78.72;101019.20;124943;1093;64285;-79
2021/08/15 00:53:06;;;;;;;13.43;4.63;;;;;;;15.64;79.11;101017.73;125048;1093;64218;-80
2021/08/15 00:55:34;;;;;;;11.13;4.83;;;;;;;15.63;79.42;101018.78;125034;1092;64297;-81
2021/08/15 00:58:06;;;;;;;15.00;5.20;;;;;;;15.61;79.32;101012.80;124892;1092;64237;-79
2021/08/15 01:00:37;;;;;;;10.53;4.80;;;;;;;15.58;79.26;101013.22;125195;1093;64282;-80
2021/08/15 01:03:04;;;;;;;10.87;4.83;;;;;;;15.58;79.38;101013.22;125473;1093;64376;-81
2021/08/15 01:05:31;;;;;;;12.97;5.10;;;;;;;15.57;79.59;101006.20;125448;1093;65374;-81
2021/08/15 01:08:00;;;;;;;13.27;6.07;;;;;;;15.55;79.28;101002.91;124960;1093;64278;-81
2021/08/15 01:10:28;;;;;;;12.93;4.83;;;;;;;15.52;79.58;100993.44;124905;1093;64250;-81
2021/08/15 01:12:55;;;;;;;14.60;5.67;;;;;;;15.51;79.80;100999.80;124907;1092;64323;-80
2021/08/15 01:15:22;;;;;;;12.77;4.80;;;;;;;15.47;79.98;100991.38;124970;1093;64285;-80
2021/08/15 01:17:49;;;;;;;9.63;4.27;;;;;;;15.44;80.69;100990.94;124988;1093;64310;-80
2021/08/15 01:20:17;;;;;;;13.93;5.40;;;;;;;15.40;80.96;100985.16;124983;1093;64304;-81
2021/08/15 01:22:46;;;;;;;15.63;6.53;;;;;;;15.35;80.97;100987.61;124888;1093;64288;-80
2021/08/15 01:25:14;;;;;;;10.57;6.17;;;;;;;15.34;80.96;100990.48;124887;1093;64779;-79
2021/08/15 01:27:43;;;;;;;9.03;4.67;;;;;;;15.30;81.19;100984.73;124942;1092;64358;-79
2021/08/15 01:30:15;;;;;;;13.95;4.60;;;;;;;15.26;81.30;100988.81;125026;1092;64493;-79
2021/08/15 01:32:44;;;;;;;9.20;4.80;;;;;;;15.21;81.05;100986.72;124929;1093;64288;-81
2021/08/15 01:35:12;;;;;;;10.13;4.80;;;;;;;15.18;81.37;100989.80;124881;1093;64307;-80
2021/08/15 01:37:39;;;;;;;15.30;5.30;;;;;;;15.13;81.23;100989.58;124913;1093;64413;-79
2021/08/15 01:40:08;;;;;;;10.53;4.77;;;;;;;15.07;81.01;100983.17;124890;1093;64375;-80
2021/08/15 01:42:35;;;;;;;10.00;4.70;;;;;;;15.02;81.48;100988.26;125535;1092;64280;-82
2021/08/15 01:45:11;;;;;;;12.57;4.27;;;;;;;14.97;81.13;100980.02;125509;1093;64305;-80
2021/08/15 01:47:38;;;;;;;12.30;5.00;;;;;;;14.92;81.03;100982.47;125298;1093;64192;-80
2021/08/15 01:50:05;;;;;;;11.83;4.23;;;;;;;14.89;81.23;100982.84;125089;1093;64314;-79
2021/08/15 01:52:32;;;;;;;10.07;4.63;;;;;;;14.87;81.35;100971.53;124862;1092;64412;-82
2021/08/15 01:54:59;;;;;;;14.03;5.13;;;;;;;14.83;81.84;100960.44;124964;1092;64436;-79
2021/08/15 01:57:26;;;;;;;12.17;4.50;;;;;;;14.81;81.53;100958.95;124914;1093;64307;-80
2021/08/15 01:59:53;;;;;;;8.60;4.40;;;;;;;14.77;82.12;100960.37;124870;1093;64283;-80
2021/08/15 02:02:20;;;;;;;13.60;5.33;;;;;;;14.74;82.08;100966.94;124929;1092;64259;-80
2021/08/15 02:04:47;;;;;;;14.20;6.63;;;;;;;14.71;81.85;100961.18;124900;1092;64288;-81
2021/08/15 02:07:14;;;;;;;10.07;4.60;;;;;;;14.68;82.05;100965.89;125112;1092;64262;-81
2021/08/15 02:09:41;;;;;;;12.33;4.87;;;;;;;14.69;81.98;100966.70;125281;1091;64288;-81
2021/08/15 02:12:08;;;;;;;9.53;4.80;;;;;;;14.69;82.30;100972.05;124916;1091;64301;-80
2021/08/15 02:14:35;;;;;;;8.03;4.33;;;;;;;14.66;81.92;100967.08;124853;1092;64307;-79
2021/08/15 02:17:03;;;;;;;8.47;4.40;;;;;;;14.64;81.81;100953.09;124934;1092;64317;-82
2021/08/15 02:19:30;;;;;;;12.93;4.40;;;;;;;14.63;81.80;100962.96;125080;1093;64400;-79
2021/08/15 02:21:57;;;;;;;8.10;4.40;;;;;;;14.63;82.01;100952.28;124815;1093;64307;-79
2021/08/15 02:24:27;;;;;;;10.07;4.87;;;;;;;14.60;81.95;100954.51;124842;1092;64291;-79
2021/08/15 02:26:54;;;;;;;8.20;4.57;;;;;;;14.57;81.69;100966.41;124845;1093;64377;-79
2021/08/15 02:29:21;;;;;;;10.80;4.13;;;;;;;14.54;82.14;100948.09;124895;1093;64202;-81
2021/08/15 02:31:47;;;;;;;11.20;5.37;;;;;;;14.54;82.13;100960.63;124926;1093;64764;-80
2021/08/15 02:34:15;;;;;;;11.43;4.67;;;;;;;14.52;82.22;100960.81;124902;1092;64301;-81
2021/08/15 02:36:42;;;;;;;12.50;5.83;;;;;;;14.52;81.97;100955.47;124985;1093;64304;-80
2021/08/15 02:39:09;;;;;;;9.07;4.57;;;;;;;14.53;82.19;100962.45;124839;1092;64311;-82
2021/08/15 02:41:36;;;;;;;8.30;4.23;;;;;;;14.54;82.28;100952.61;124879;1093;64412;-80
2021/08/15 02:44:03;;;;;;;8.80;4.25;;;;;;;14.52;82.30;100950.13;124915;1093;64680;-80
2021/08/15 02:46:30;;;;;;;9.77;3.73;;;;;;;14.48;82.40;100948.87;124930;1091;64424;-80
2021/08/15 02:48:57;;;;;;;8.40;4.37;;;;;;;14.43;82.04;100944.12;124949;1092;64636;-80
2021/08/15 02:51:24;;;;;;;12.80;5.50;;;;;;;14.40;82.53;100949.01;124905;1092;64285;-80
2021/08/15 02:53:53;;;;;;;10.15;4.15;;;;;;;14.36;82.48;100945.89;124878;1092;64467;-80
2021/08/15 02:56:20;;;;;;;10.33;4.43;;;;;;;14.35;82.59;100943.44;124926;1092;64265;-80
2021/08/15 02:58:47;;;;;;;12.77;4.50;;;;;;;14.33;82.81;100953.48;124823;1092;64236;-80
2021/08/15 03:01:14;;;;;;;12.83;4.87;;;;;;;14.33;82.46;100953.48;124836;1093;64386;-79
2021/08/15 03:03:41;;;;;;;10.97;4.20;;;;;;;14.32;82.90;100959.82;124907;1093;64279;-79
2021/08/15 03:06:08;;;;;;;17.10;4.40;;;;;;;14.31;82.84;100953.66;124920;1093;64397;-80
2021/08/15 03:08:35;;;;;;;10.20;4.90;;;;;;;14.26;82.98;100946.24;124895;1093;64302;-82
2021/08/15 03:11:02;;;;;;;10.90;5.27;;;;;;;14.26;82.86;100951.58;124798;1093;64223;-79
2021/08/15 03:13:29;;;;;;;8.93;4.40;;;;;;;14.24;83.02;100953.61;124941;1093;64237;-80
2021/08/15 03:15:56;;;;;;;9.10;4.60;;;;;;;14.22;83.36;100936.97;124820;1093;64408;-80
2021/08/15 03:18:24;;;;;;;12.10;5.03;;;;;;;14.22;83.39;100933.48;124895;1092;64345;-80
2021/08/15 03:20:51;;;;;;;11.37;5.27;;;;;;;14.20;84.26;100941.67;124977;1093;64253;-80
2021/08/15 03:23:18;;;;;;;13.03;6.10;;;;;;;14.17;84.65;100943.89;124882;1092;64293;-80
2021/08/15 03:25:45;;;;;;;11.03;4.67;;;;;;;14.14;85.38;100941.63;124855;1093;64291;-79
2021/08/15 03:28:12;;;;;;;13.97;5.00;;;;;;;14.12;85.24;100933.80;125133;1093;64277;-81
2021/08/15 03:30:39;;;;;;;9.43;5.30;;;;;;;14.10;86.16;100922.50;124933;1092;64326;-80
2021/08/15 03:33:06;;;;;;;16.30;7.20;;;;;;;14.10;85.64;100919.83;125216;1093;64243;-80
2021/08/15 03:35:33;;;;;;;9.53;4.83;;;;;;;14.11;85.65;100924.16;124949;1093;64307;-79
2021/08/15 03:38:00;;;;;;;10.07;4.97;;;;;;;14.12;85.96;100914.31;124993;1093;64298;-80
2021/08/15 03:40:27;;;;;;;8.67;5.10;;;;;;;14.12;85.59;100901.79;124957;1092;64249;-80
2021/08/15 03:42:54;;;;;;;9.13;5.10;;;;;;;14.11;85.45;100892.16;124886;1092;64358;-80
2021/08/15 03:45:22;;;;;;;12.73;4.87;;;;;;;14.09;85.51;100888.85;124871;1093;64314;-81
2021/08/15 03:47:49;;;;;;;18.50;6.17;;;;;;;14.08;85.37;100888.00;124949;1093;64384;-79
2021/08/15 03:50:17;;;;;;;8.10;5.23;;;;;;;14.04;85.84;100894.73;124889;1092;64296;-81
2021/08/15 03:52:44;;;;;;;9.17;5.33;;;;;;;14.04;86.13;100899.26;124937;1093;64243;-81
2021/08/15 03:55:11;;;;;;;15.00;5.80;;;;;;;14.01;86.15;100903.14;124903;1093;64253;-81
2021/08/15 03:57:40;;;;;;;11.90;4.70;;;;;;;14.00;86.15;100895.33;124894;1093;64870;-81
2021/08/15 04:00:08;;;;;;;11.17;5.00;;;;;;;13.98;86.30;100897.36;124898;1095;64291;-79
2021/08/15 04:02:35;;;;;;;8.90;4.73;;;;;;;13.95;86.09;100890.57;125749;1093;64375;-82
2021/08/15 04:05:03;;;;;;;12.13;5.37;;;;;;;13.91;86.29;100889.30;124894;1093;64265;-80
2021/08/15 04:07:30;;;;;;;12.07;5.33;;;;;;;13.90;87.10;100882.33;124917;1092;64381;-80
2021/08/15 04:09:57;;;;;;;13.87;5.70;;;;;;;13.90;86.81;100881.48;124824;1093;64217;-81
2021/08/15 04:12:24;;;;;;;11.67;4.50;;;;;;;13.89;86.96;100875.34;124860;1093;64236;-82
2021/08/15 04:14:51;;;;;;;11.67;5.23;;;;;;;13.91;87.01;100883.97;124949;1093;64358;-82
2021/08/15 04:17:19;;;;;;;10.13;5.40;;;;;;;13.93;87.17;100892.60;125072;1093;64307;-80
2021/08/15 04:19:46;;;;;;;20.07;7.10;;;;;;;13.96;87.27;100891.39;124921;1092;64203;-80
2021/08/15 04:22:13;;;;;;;10.10;5.13;;;;;;;14.01;87.23;100875.65;124942;1093;64313;-80
2021/08/15 04:24:40;;;;;;;11.20;4.47;;;;;;;14.06;87.04;100884.70;124910;1093;64304;-80
2021/08/15 04:27:07;;;;;;;9.93;4.30;;;;;;;14.13;86.95;100871.44;124893;1093;64342;-81
2021/08/15 04:29:39;;;;;;;9.23;4.57;;;;;;;14.20;86.95;100868.81;125114;1092;64214;-80
2021/08/15 04:32:07;;;;;;;13.97;4.60;;;;;;;14.26;86.55;100847.52;125081;1093;64446;-80
2021/08/15 04:34:34;;;;;;;11.27;4.23;;;;;;;14.32;86.73;100858.41;124962;1093;64333;-80
2021/08/15 04:37:04;;;;;;;8.63;4.40;;;;;;;14.38;86.59;100870.98;124951;1093;64394;-80
2021/08/15 04:39:31;;;;;;;12.33;4.60;;;;;;;14.45;86.38;100861.16;125035;1093;64783;-80
2021/08/15 04:41:59;;;;;;;11.13;4.30;;;;;;;14.52;86.27;100848.69;124924;1093;64307;-81
2021/08/15 04:44:27;;;;;;;7.93;4.30;;;;;;;14.55;86.30;100842.97;124931;1092;64336;-80
2021/08/15 04:46:53;;;;;;;6.00;3.77;;;;;;;14.60;86.22;100842.38;124885;1093;64339;-81
2021/08/15 04:49:20;;;;;;;7.63;4.23;;;;;;;14.64;86.03;100839.14;124927;1092;64308;-81
2021/08/15 04:51:48;;;;;;;8.45;4.50;;;;;;;14.69;85.81;100838.54;124972;1093;64311;-80
2021/08/15 04:54:16;;;;;;;10.70;4.95;;;;;;;14.75;85.93;100834.23;125028;1093;64335;-79
2021/08/15 04:56:43;;;;;;;9.45;4.85;;;;;;;14.81;85.70;100841.45;124933;1093;64298;-80
2021/08/15 04:59:09;;;;;;;13.30;4.37;;;;;;;14.86;85.54;100833.68;125333;1092;64297;-80
2021/08/15 05:01:36;;;;;;;14.77;4.90;;;;;;;14.95;85.42;100828.98;125278;1092;64231;-80
2021/08/15 05:04:05;;;;;;;14.00;4.80;;;;;;;15.02;85.14;100827.14;124962;1093;64294;-80
2021/08/15 05:06:35;;;;;;;10.13;4.30;;;;;;;15.08;84.83;100824.48;125073;1093;64878;-80
2021/08/15 05:09:03;;;;;;;12.07;4.77;;;;;;;15.17;84.44;100824.31;125034;1092;64301;-79
2021/08/15 05:11:30;;;;;;;8.30;3.87;;;;;;;15.25;84.60;100821.45;124995;1092;64304;-80
2021/08/15 05:13:57;;;;;;;8.33;4.60;;;;;;;15.30;84.48;100835.05;124909;1093;64300;-81
2021/08/15 05:16:24;;;;;;;19.83;6.57;;;;;;;15.36;84.48;100828.86;124880;1093;64304;-81
2021/08/15 05:18:52;;;;;;;11.53;5.00;;;;;;;15.42;84.13;100827.23;124916;1093;64301;-79
2021/08/15 05:21:19;;;;;;;10.20;4.07;;;;;;;15.48;83.82;100829.91;125090;1093;64282;-82
2021/08/15 05:23:46;;;;;;;9.27;4.73;;;;;;;15.55;83.52;100834.45;124959;1093;64302;-80
2021/08/15 05:26:13;;;;;;;10.70;4.47;;;;;;;15.59;83.31;100831.16;125015;1091;64309;-80
2021/08/15 05:28:40;;;;;;;8.53;4.43;;;;;;;15.66;83.22;100839.18;125124;1093;64237;-80
2021/08/15 05:31:07;;;;;;;13.93;5.23;;;;;;;15.73;82.77;100840.06;125078;1093;64291;-79
2021/08/15 05:33:35;;;;;;;12.43;5.03;;;;;;;15.81;82.60;100845.20;125046;1093;64352;-80
2021/08/15 05:36:02;;;;;;;9.33;4.67;;;;;;;15.87;81.92;100849.73;125191;1093;64613;-81
2021/08/15 05:38:29;;;;;;;14.97;4.93;;;;;;;15.96;82.02;100839.65;124942;1092;64176;-81
2021/08/15 05:40:56;;;;;;;10.03;5.17;;;;;;;16.03;81.82;100835.10;125060;1093;64211;-81
2021/08/15 05:43:23;;;;;;;10.07;5.20;;;;;;;16.14;81.60;100846.21;124931;1093;64288;-81
2021/08/15 05:45:50;;;;;;;9.10;5.17;;;;;;;16.21;80.93;100847.02;125150;1093;64545;-82
2021/08/15 05:48:18;;;;;;;6.53;4.40;;;;;;;16.28;80.63;100843.30;124925;1093;64871;-83
2021/08/15 05:50:45;;;;;;;12.85;5.10;;;;;;;16.35;80.41;100847.83;125004;1092;64681;-81
2021/08/15 05:53:12;;;;;;;11.00;5.13;;;;;;;16.43;80.29;100843.06;124968;1093;64227;-80
2021/08/15 05:55:39;;;;;;;10.30;4.67;;;;;;;16.49;79.57;100854.77;125020;1093;64876;-80
2021/08/15 05:58:06;;;;;;;11.50;5.13;;;;;;;16.50;79.57;100856.44;124966;1092;64349;-80
2021/08/15 06:00:33;;;;;;;8.30;4.07;;;;;;;16.49;79.49;100855.63;125036;1093;64320;-80
2021/08/15 06:03:00;;;;;;;11.73;4.80;;;;;;;16.47;79.67;100851.52;125075;1093;64310;-80
2021/08/15 06:05:28;;;;;;;13.80;5.20;;;;;;;16.46;79.44;100852.53;124999;1093;64288;-80
2021/08/15 06:07:55;;;;;;;10.87;4.77;;;;;;;16.45;79.66;100846.36;125086;1093;64214;-79
2021/08/15 06:10:22;;;;;;;11.70;5.35;;;;;;;16.47;79.76;100856.87;124981;1093;64298;-79
2021/08/15 06:12:49;;;;;;;11.53;5.60;;;;;;;16.46;79.75;100847.17;125053;1093;64291;-80
2021/08/15 06:15:16;;;;;;;13.83;4.73;;;;;;;16.49;79.52;100849.42;125480;1091;64291;-80
2021/08/15 06:17:44;;;;;;;13.47;4.40;;;;;;;16.59;79.65;100849.81;125087;1092;64269;-80
2021/08/15 06:20:13;;;;;;;14.63;5.90;;;;;;;16.69;79.27;100838.66;125076;1093;64211;-79
2021/08/15 06:22:43;;;;;;;8.70;4.80;;;;;;;16.79;78.94;100847.08;125257;1093;64776;-80
2021/08/15 06:25:11;;;;;;;11.70;5.37;;;;;;;16.89;78.56;100849.31;125302;1092;64390;-79
2021/08/15 06:27:43;;;;;;;13.17;5.27;;;;;;;17.03;78.28;100852.77;126676;1095;64267;-81
2021/08/15 06:30:16;;;;;;;10.50;5.43;;;;;;;17.19;77.69;100848.76;125690;1093;64367;-80
2021/08/15 06:32:48;;;;;;;9.93;5.17;;;;;;;17.34;76.76;100857.36;125422;1093;64211;-80
2021/08/15 06:35:22;;;;;;;13.70;4.40;;;;;;;17.56;76.79;100855.14;125192;1093;64349;-80
2021/08/15 06:37:52;;;;;;;13.10;5.25;;;;;;;17.82;75.76;100853.29;125211;1093;64359;-80
2021/08/15 06:40:20;;;;;;;12.43;5.53;;;;;;;18.07;75.38;100843.39;125024;1095;64306;-79
2021/08/15 06:42:48;;;;;;;9.67;5.10;;;;;;;18.31;74.20;100830.95;125166;1093;64286;-80
2021/08/15 06:45:18;;;;;;;13.17;6.10;;;;;;;18.56;72.14;100854.26;124958;1093;65122;-79
2021/08/15 06:47:45;;;;;;;11.50;4.97;;;;;;;18.64;71.08;100847.78;125482;1092;64358;-80
2021/08/15 06:50:13;;;;;;;11.40;5.40;;;;;;;18.70;70.78;100850.38;124926;1092;64324;-80
2021/08/15 06:52:40;;;;;;;10.90;4.93;;;;;;;18.75;70.46;100831.70;124917;1093;64343;-80
2021/08/15 06:55:08;;;;;;;8.37;5.27;;;;;;;18.81;69.73;100829.20;125057;1093;64307;-80
2021/08/15 06:57:38;;;;;;;9.80;5.27;;;;;;;18.89;70.26;100826.19;124997;1092;64310;-86
2021/08/15 07:00:06;;;;;;;8.53;4.37;;;;;;;18.91;70.15;100829.47;124811;1093;64455;-80
2021/08/15 07:02:37;;;;;;;8.97;4.47;;;;;;;18.95;70.36;100825.28;124798;1093;64319;-76
2021/08/15 07:05:07;;;;;;;10.17;4.20;;;;;;;18.98;70.21;100819.46;124796;1093;64287;-76
2021/08/15 07:07:34;;;;;;;15.70;7.77;;;;;;;19.00;69.79;100827.28;124915;1093;64292;-74
2021/08/15 07:10:01;;;;;;;10.43;4.70;;;;;;;19.02;69.65;100834.09;124790;1093;64288;-79
2021/08/15 07:12:28;;;;;;;12.10;5.50;;;;;;;19.08;69.50;100822.43;124942;1092;64335;-79
2021/08/15 07:14:55;;;;;;;8.97;4.80;;;;;;;19.17;69.16;100827.46;124882;1092;64374;-75
2021/08/15 07:17:22;;;;;;;10.10;5.30;;;;;;;19.23;68.87;100837.30;124693;1093;64667;-77
2021/08/15 07:19:49;;;;;;;8.53;4.80;;;;;;;19.25;68.66;100840.59;124795;1093;64330;-78
2021/08/15 07:22:16;;;;;;;11.87;4.90;;;;;;;19.25;68.59;100837.90;124954;1092;64217;-78
2021/08/15 07:24:43;;;;;;;12.03;5.63;;;;;;;19.22;68.02;100831.11;124764;1093;64336;-75
2021/08/15 07:27:10;;;;;;;9.80;5.43;;;;;;;19.31;68.03;100818.16;124785;1093;64192;-76
2021/08/15 07:29:37;;;;;;;11.27;5.77;;;;;;;19.38;68.49;100824.28;124693;1093;64348;-76
2021/08/15 07:32:05;;;;;;;12.80;5.33;;;;;;;19.45;68.61;100816.91;124706;1093;65509;-75
2021/08/15 07:34:32;;;;;;;14.23;5.40;;;;;;;19.54;68.10;100828.97;124813;1093;64259;-76
2021/08/15 07:36:59;;;;;;;13.97;6.07;;;;;;;19.58;67.84;100812.38;124603;1093;66987;-76
2021/08/15 07:39:26;;;;;;;12.67;5.60;;;;;;;19.60;66.82;100807.59;124736;1092;64298;-76
2021/08/15 07:41:53;;;;;;;12.23;5.47;;;;;;;19.61;67.08;100811.91;125253;1092;64288;-76
2021/08/15 07:44:22;;;;;;;10.17;4.57;;;;;;;19.71;67.45;100806.80;124639;1093;64205;-74
2021/08/15 07:46:50;;;;;;;9.73;4.60;;;;;;;19.78;66.82;100812.88;125282;1093;64304;-78
2021/08/15 07:49:17;;;;;;;15.17;5.50;;;;;;;19.81;66.64;100819.70;124752;1093;64539;-76
2021/08/15 07:51:44;;;;;;;10.00;5.30;;;;;;;19.83;66.69;100809.52;124807;1093;64411;-77
2021/08/15 07:54:11;;;;;;;15.60;6.17;;;;;;;19.81;66.54;100809.74;124799;1093;64399;-75
2021/08/15 07:56:38;;;;;;;9.30;4.67;;;;;;;19.89;66.57;100820.17;124840;1093;64295;-76
2021/08/15 07:59:05;;;;;;;11.00;5.90;;;;;;;19.91;66.50;100827.98;124691;1093;64310;-75
2021/08/15 08:01:32;;;;;;;10.80;6.27;;;;;;;20.00;66.84;100821.22;124771;1093;64358;-77
2021/08/15 08:04:00;;;;;;;11.50;5.60;;;;;;;20.08;66.78;100828.11;124696;1093;64291;-76
2021/08/15 08:06:27;;;;;;;16.57;6.60;;;;;;;20.06;66.33;100809.52;124707;1092;64293;-76
2021/08/15 08:08:54;;;;;;;14.03;6.80;;;;;;;20.07;66.27;100815.70;124681;1093;64275;-75
2021/08/15 08:11:21;;;;;;;15.73;6.20;;;;;;;20.10;66.69;100815.23;124632;1093;64330;-75
2021/08/15 08:13:50;;;;;;;20.43;6.77;;;;;;;20.13;66.71;100807.50;124715;1093;64330;-76
2021/08/15 08:16:17;;;;;;;13.40;5.57;;;;;;;20.32;66.55;100808.19;124847;1093;64293;-75
2021/08/15 08:18:47;;;;;;;11.47;5.50;;;;;;;20.50;65.15;100803.69;124771;1093;64290;-75
2021/08/15 08:21:14;;;;;;;11.47;6.47;;;;;;;20.56;64.35;100803.55;124687;1092;64630;-76
2021/08/15 08:23:41;;;;;;;11.73;5.90;;;;;;;20.64;64.39;100804.29;124676;1093;64237;-75
2021/08/15 08:26:08;;;;;;;14.80;5.73;;;;;;;20.68;65.04;100795.48;124658;1092;64261;-76
2021/08/15 08:28:35;;;;;;;10.45;6.20;;;;;;;20.69;64.60;100794.41;124764;1093;64293;-75
2021/08/15 08:31:02;;;;;;;16.33;6.93;;;;;;;20.69;65.02;100788.20;124652;1092;64301;-75
2021/08/15 08:33:29;;;;;;;13.93;6.43;;;;;;;20.63;64.18;100797.24;124712;1093;64341;-76
2021/08/15 08:35:57;;;;;;;14.70;6.33;;;;;;;20.62;64.94;100791.04;124631;1093;64268;-76
2021/08/15 08:38:25;;;;;;;11.80;4.93;;;;;;;20.75;64.88;100790.75;124679;1093;64310;-76
2021/08/15 08:40:54;;;;;;;10.30;5.20;;;;;;;20.86;63.67;100793.65;124751;1093;64310;-76
2021/08/15 08:43:21;;;;;;;15.50;6.93;;;;;;;21.02;63.55;100795.58;124696;1093;64298;-75
2021/08/15 08:45:48;;;;;;;14.73;6.60;;;;;;;21.15;62.57;100800.66;124702;1093;64496;-77
2021/08/15 08:48:17;;;;;;;15.00;6.73;;;;;;;21.35;62.11;100784.00;124690;1093;64285;-75
2021/08/15 08:50:44;;;;;;;15.60;7.03;;;;;;;21.48;60.76;100779.38;124815;1093;64252;-75
2021/08/15 08:53:11;;;;;;;12.17;7.30;;;;;;;21.49;60.49;100772.93;124744;1093;64300;-75
2021/08/15 08:55:39;;;;;;;11.03;6.60;;;;;;;21.60;60.46;100765.80;124834;1093;64304;-76
2021/08/15 08:58:08;;;;;;;10.87;5.53;;;;;;;21.71;60.66;100786.48;124715;1093;64689;-76
2021/08/15 09:00:35;;;;;;;14.30;7.17;;;;;;;21.83;59.94;100773.72;125707;1094;66323;-75
2021/08/15 09:03:02;;;;;;;11.80;6.40;;;;;;;22.01;59.75;100772.61;124731;1093;64435;-77
2021/08/15 09:05:32;;;;;;;14.43;6.80;;;;;;;22.16;59.26;100770.10;124719;1093;64249;-75
2021/08/15 09:08:03;;;;;;;11.90;6.15;;;;;;;22.33;58.92;100767.38;124988;1093;64291;-76
2021/08/15 09:10:33;;;;;;;16.77;7.10;;;;;;;22.36;58.54;100758.78;124721;1093;64307;-79
2021/08/15 09:13:03;;;;;;;13.00;6.90;;;;;;;22.27;58.10;100763.00;125382;1092;64515;-78
2021/08/15 09:15:30;;;;;;;15.35;5.95;;;;;;;22.19;57.65;100758.00;126686;1093;64298;-80
2021/08/15 09:17:58;;;;;;;12.70;6.43;;;;;;;22.12;57.30;100755.48;124964;1093;64308;-78
2021/08/15 09:20:39;;;;;;;12.30;6.03;;;;;;;22.03;56.98;100756.97;124869;1093;64291;-77
2021/08/15 09:23:36;;;;;;;9.65;5.05;;;;;;;22.05;56.73;100759.42;124917;1093;65211;-75
2021/08/15 09:26:18;;;;;;;9.90;5.37;;;;;;;22.27;56.76;100746.79;124765;1093;65454;-75
2021/08/15 09:28:49;;;;;;;14.50;6.57;;;;;;;22.52;56.24;100740.84;124729;1093;64291;-75
2021/08/15 09:31:29;;;;;;;11.77;5.37;;;;;;;22.77;55.59;100734.08;124754;1093;64350;-75
2021/08/15 09:33:59;;;;;;;9.10;5.23;;;;;;;22.93;55.09;100729.63;124772;1093;65375;-75
2021/08/15 09:36:32;;;;;;;10.43;5.53;;;;;;;22.91;54.35;100729.06;124688;1093;64323;-75
2021/08/15 09:39:02;;;;;;;12.43;6.13;;;;;;;22.94;54.58;100728.56;124701;1093;65444;-76
2021/08/15 09:41:33;;;;;;;8.63;4.93;;;;;;;22.85;54.50;100730.92;124799;1093;64322;-76
2021/08/15 09:44:16;;;;;;;11.00;5.17;;;;;;;22.85;54.40;100732.81;124884;1093;64280;-75
2021/08/15 09:47:06;;;;;;;8.23;4.47;;;;;;;22.89;54.63;100734.75;124797;1093;64265;-77
2021/08/15 09:49:41;;;;;;;11.83;5.60;;;;;;;23.01;53.79;100731.89;124697;1092;64872;-75
2021/08/15 09:52:15;;;;;;;7.17;4.83;;;;;;;23.08;54.09;100729.81;124746;1093;64374;-76
2021/08/15 09:54:59;;;;;;;6.87;4.30;;;;;;;23.13;54.94;100735.25;124764;1093;64350;-76
2021/08/15 09:57:33;;;;;;;6.77;3.80;;;;;;;23.08;53.40;100737.93;124843;1092;64631;-75
2021/08/15 10:00:00;;;;;;;7.30;3.65;;;;;;;22.93;53.30;100730.45;124756;1092;64285;-76
2021/08/15 10:02:28;;;;;;;6.67;3.77;;;;;;;22.92;54.04;100726.11;124801;1093;65384;-76
2021/08/15 10:04:56;;;;;;;8.33;3.23;;;;;;;22.91;54.03;100726.36;124741;1095;64412;-75
2021/08/15 10:07:26;;;;;;;6.63;3.37;;;;;;;22.93;53.99;100724.21;124643;1093;64448;-74
2021/08/15 10:09:54;;;;;;;7.77;3.80;;;;;;;23.07;53.69;100728.16;124672;1093;64352;-75
2021/08/15 10:12:21;;;;;;;9.73;4.50;;;;;;;23.24;53.51;100728.03;124814;1093;64307;-76
2021/08/15 10:14:48;;;;;;;6.20;4.00;;;;;;;23.40;52.76;100723.56;124735;1093;64361;-77
2021/08/15 10:17:17;;;;;;;9.07;3.80;;;;;;;23.55;52.76;100712.84;124671;1093;64317;-75
2021/08/15 10:19:54;;;;;;;6.50;3.77;;;;;;;23.81;52.42;100715.72;124745;1093;64473;-75
2021/08/15 10:22:23;;;;;;;8.17;4.00;;;;;;;23.95;51.01;100708.76;124817;1093;64361;-77
2021/08/15 10:24:53;;;;;;;7.80;4.90;;;;;;;24.06;50.30;100706.91;125067;1093;64348;-77
2021/08/15 10:27:39;;;;;;;5.40;2.90;;;;;;;24.21;50.32;100708.86;124798;1093;64301;-76
2021/08/15 10:30:30;;;;;;;7.23;2.90;;;;;;;24.60;50.02;100708.45;125052;1092;64310;-76
2021/08/15 10:32:58;;;;;;;7.00;3.37;;;;;;;24.83;49.77;100705.22;124763;1093;64341;-76
2021/08/15 10:35:28;;;;;;;8.30;3.73;;;;;;;24.96;48.51;100708.50;124716;1093;64390;-76
2021/08/15 10:38:28;;;;;;;8.73;3.43;;;;;;;25.10;47.53;100687.88;124716;1093;64310;-75
2021/08/15 10:40:56;;;;;;;6.63;3.00;;;;;;;25.08;47.65;100684.62;124766;1093;64342;-75
2021/08/15 10:43:22;;;;;;;7.90;3.23;;;;;;;25.14;48.36;100677.27;124744;1093;64303;-74
2021/08/15 10:46:15;;;;;;;6.40;3.03;;;;;;;25.29;47.58;100687.33;124706;1093;64234;-76
2021/08/15 10:48:56;;;;;;;6.85;3.05;;;;;;;25.36;46.67;100685.16;124756;1093;64308;-75
2021/08/15 10:51:43;;;;;;;6.03;3.10;;;;;;;25.29;46.84;100680.02;124737;1093;64790;-76
2021/08/15 10:54:26;;;;;;;5.90;2.85;;;;;;;25.07;47.13;100688.41;124788;1092;64211;-76
2021/08/15 10:56:59;;;;;;;10.63;3.50;;;;;;;24.89;47.48;100675.39;124715;1093;64278;-76
2021/08/15 10:59:39;;;;;;;5.33;3.30;;;;;;;24.73;47.55;100680.79;124853;1093;64282;-76
2021/08/15 11:02:13;;;;;;;6.03;3.27;;;;;;;24.72;48.36;100678.38;124697;1093;64301;-75
2021/08/15 11:04:54;;;;;;;8.75;3.60;;;;;;;24.94;48.20;100675.38;124835;1093;64384;-76
2021/08/15 11:07:36;;;;;;;9.00;3.87;;;;;;;25.12;48.16;100669.42;124871;1092;64384;-76
2021/08/15 11:10:06;;;;;;;10.07;4.50;;;;;;;25.36;47.32;100671.59;125015;1093;64741;-75
2021/08/15 11:12:33;;;;;;;7.10;3.83;;;;;;;25.34;47.22;100658.27;125135;1093;64304;-76
2021/08/15 11:15:10;;;;;;;11.03;4.33;;;;;;;25.38;47.38;100663.98;124907;1092;64305;-75
2021/08/15 11:17:39;;;;;;;6.10;3.10;;;;;;;25.29;46.84;100668.32;124884;1092;64291;-76
2021/08/15 11:20:39;;;;;;;5.30;3.50;;;;;;;25.33;47.56;100659.38;124885;1093;64304;-76